Time;durP1;ratioP1;P1;durP2;ratioP2;P2;SDS_P1;SDS_P2;PMS_P1;PMS_P2;Temp;Humidity;BMP_temperature;BMP_pressure;BME280_temperature;BME280_humidity;BME280_pressure;Samples;Min_cycle;Max_cycle;Signal;HPM_P1;HPM_P2
2024/01/11 00:00:37;;;;;;;40.30;19.67;;;-7.30;1.00;;;;;;5054014;28;20441;-78
2024/01/11 00:03:03;;;;;;;38.63;18.87;;;-7.30;99.90;;;;;;5054114;28;20182;-78
2024/01/11 00:05:28;;;;;;;42.90;19.80;;;-7.30;99.90;;;;;;5054189;28;20253;-78
2024/01/11 00:07:54;;;;;;;42.67;18.77;;;-7.40;1.00;;;;;;5054127;28;20221;-78
2024/01/11 00:10:20;;;;;;;41.03;18.23;;;-7.40;1.00;;;;;;5052687;28;20178;-77
2024/01/11 00:12:46;;;;;;;46.43;20.97;;;-7.50;1.00;;;;;;5054267;28;20262;-77
2024/01/11 00:15:12;;;;;;;46.83;20.37;;;-7.50;1.00;;;;;;5054939;28;20214;-78
2024/01/11 00:17:37;;;;;;;45.87;20.17;;;-7.60;1.00;;;;;;5054405;28;20220;-78
2024/01/11 00:20:03;;;;;;;37.27;18.77;;;-7.60;1.00;;;;;;5052469;28;20432;-78
2024/01/11 00:22:29;;;;;;;41.80;21.03;;;-7.60;1.00;;;;;;5054023;28;20265;-78
2024/01/11 00:24:54;;;;;;;47.67;20.00;;;-7.50;1.00;;;;;;5054954;28;20184;-78
2024/01/11 00:27:20;;;;;;;44.40;19.83;;;-7.50;99.90;;;;;;5052769;28;20174;-77
2024/01/11 00:29:46;;;;;;;38.60;19.73;;;-7.60;99.90;;;;;;5052818;28;20206;-77
2024/01/11 00:32:11;;;;;;;48.13;20.80;;;-7.60;99.90;;;;;;5053870;28;20205;-78
2024/01/11 00:34:37;;;;;;;41.33;20.23;;;-7.70;99.90;;;;;;5044893;28;20182;-78
2024/01/11 00:37:03;;;;;;;45.33;20.10;;;-7.70;99.90;;;;;;5053359;28;20174;-78
2024/01/11 00:39:29;;;;;;;41.53;19.47;;;-7.70;1.00;;;;;;5055982;28;20439;-79
2024/01/11 00:41:55;;;;;;;43.37;20.47;;;-7.70;99.90;;;;;;5056329;28;20644;-78
2024/01/11 00:44:20;;;;;;;42.33;20.13;;;-7.70;99.90;;;;;;5057538;28;20253;-77
2024/01/11 00:46:46;;;;;;;44.03;20.73;;;-7.70;99.90;;;;;;5057022;28;20176;-77
2024/01/11 00:49:11;;;;;;;46.90;21.10;;;-7.70;1.00;;;;;;5057951;28;20220;-78
2024/01/11 00:51:37;;;;;;;43.13;20.80;;;-7.70;99.90;;;;;;5056738;28;20217;-78
2024/01/11 00:54:03;;;;;;;44.77;20.70;;;-7.70;99.90;;;;;;5057045;28;20169;-78
2024/01/11 00:56:28;;;;;;;47.20;20.23;;;-7.70;99.90;;;;;;5056671;28;20174;-78
2024/01/11 00:58:54;;;;;;;42.97;20.10;;;-7.80;99.90;;;;;;5056401;28;20682;-78
2024/01/11 01:01:19;;;;;;;44.73;20.03;;;-7.80;99.90;;;;;;5057149;28;20177;-78
2024/01/11 01:03:45;;;;;;;44.13;20.13;;;-7.80;1.00;;;;;;5056495;28;20231;-77
2024/01/11 01:06:10;;;;;;;42.30;19.93;;;-7.90;99.90;;;;;;5057164;28;20264;-78
2024/01/11 01:08:36;;;;;;;41.37;20.03;;;-7.80;99.90;;;;;;5057490;28;20198;-78
2024/01/11 01:11:02;;;;;;;48.73;22.50;;;-7.80;1.00;;;;;;5057248;28;20178;-79
2024/01/11 01:13:27;;;;;;;43.77;20.97;;;-7.90;1.00;;;;;;5057688;28;20245;-78
2024/01/11 01:15:53;;;;;;;42.60;21.00;;;-7.90;99.90;;;;;;5056219;28;20174;-77
2024/01/11 01:18:18;;;;;;;47.07;20.43;;;-7.80;99.90;;;;;;5056488;28;20280;-78
2024/01/11 01:20:44;;;;;;;47.13;20.93;;;-7.80;99.90;;;;;;5056739;28;20181;-78
2024/01/11 01:23:10;;;;;;;44.87;20.30;;;-7.90;99.90;;;;;;5056618;28;20671;-78
2024/01/11 01:25:35;;;;;;;48.03;21.93;;;-7.90;1.00;;;;;;5057302;28;20305;-77
2024/01/11 01:28:01;;;;;;;49.33;21.33;;;-7.90;99.90;;;;;;5057726;28;20277;-77
2024/01/11 01:30:27;;;;;;;48.13;20.80;;;-7.90;99.90;;;;;;5057043;28;20178;-79
2024/01/11 01:32:53;;;;;;;44.60;21.10;;;-7.90;1.00;;;;;;5056043;28;20237;-78
2024/01/11 01:35:19;;;;;;;45.87;21.00;;;-8.00;1.00;;;;;;5057439;28;20408;-78
2024/01/11 01:37:44;;;;;;;49.33;22.37;;;-8.00;99.90;;;;;;5056316;28;20415;-77
2024/01/11 01:40:11;;;;;;;50.37;22.13;;;-8.10;99.90;;;;;;5055645;28;20232;-78
2024/01/11 01:42:43;;;;;;;49.67;20.80;;;-8.00;1.00;;;;;;5055697;28;20593;-77
2024/01/11 01:45:09;;;;;;;42.93;20.47;;;-8.00;1.00;;;;;;5055915;28;20416;-78
2024/01/11 01:47:35;;;;;;;51.77;20.80;;;-8.00;1.00;;;;;;5057177;28;20912;-78
2024/01/11 01:50:02;;;;;;;44.63;20.43;;;-8.10;1.00;;;;;;5055017;28;20214;-78
2024/01/11 01:52:28;;;;;;;47.07;19.77;;;-8.20;83.40;;;;;;5055641;28;20248;-77
2024/01/11 01:54:54;;;;;;;47.67;20.70;;;-8.20;68.80;;;;;;5055606;28;20796;-79
2024/01/11 01:57:20;;;;;;;47.60;20.47;;;-8.20;1.00;;;;;;5055917;28;20185;-80
2024/01/11 01:59:50;;;;;;;42.60;20.07;;;-8.20;99.90;;;;;;5055581;28;20200;-78
2024/01/11 02:02:16;;;;;;;43.60;19.57;;;-8.20;6.00;;;;;;5055157;28;20412;-77
2024/01/11 02:04:42;;;;;;;44.57;21.27;;;-8.20;1.00;;;;;;5057210;28;20958;-78
2024/01/11 02:07:08;;;;;;;48.07;21.13;;;-8.20;1.00;;;;;;5055671;28;20181;-79
2024/01/11 02:09:35;;;;;;;50.50;20.77;;;-8.20;98.30;;;;;;5056305;28;20202;-78
2024/01/11 02:12:01;;;;;;;41.97;20.17;;;-8.20;1.00;;;;;;5054868;28;20456;-77
2024/01/11 02:14:27;;;;;;;43.70;20.33;;;-8.20;91.70;;;;;;5056848;28;20405;-78
2024/01/11 02:16:52;;;;;;;47.50;20.73;;;-8.30;1.00;;;;;;5056287;28;20484;-78
2024/01/11 02:19:19;;;;;;;42.33;19.53;;;-8.40;99.90;;;;;;5056714;28;20285;-77
2024/01/11 02:21:48;;;;;;;44.50;20.50;;;-8.40;1.00;;;;;;5055074;28;20182;-78
2024/01/11 02:24:14;;;;;;;45.90;19.97;;;-8.40;1.00;;;;;;5056726;28;20981;-78
2024/01/11 02:26:59;;;;;;;44.20;19.37;;;-8.40;99.90;;;;;;5056432;28;20495;-78
2024/01/11 02:29:25;;;;;;;45.13;20.53;;;-8.40;1.00;;;;;;5055301;28;20255;-78
2024/01/11 02:31:51;;;;;;;44.87;20.30;;;-8.40;75.50;;;;;;5054573;28;20471;-78
2024/01/11 02:34:16;;;;;;;49.27;21.60;;;-8.50;1.00;;;;;;5056786;28;20174;-78
2024/01/11 02:36:43;;;;;;;46.97;21.23;;;-8.50;99.90;;;;;;5054660;28;20174;-79
2024/01/11 02:39:08;;;;;;;47.47;20.43;;;-8.50;99.90;;;;;;5056462;28;20212;-80
2024/01/11 02:41:40;;;;;;;44.33;21.03;;;-8.40;1.00;;;;;;5054924;28;20413;-78
2024/01/11 02:44:06;;;;;;;45.80;20.53;;;-8.50;66.90;;;;;;5055298;28;20701;-78
2024/01/11 02:46:32;;;;;;;44.73;20.00;;;-8.50;1.00;;;;;;5055159;28;20428;-78
2024/01/11 02:48:58;;;;;;;43.53;20.50;;;-8.50;1.00;;;;;;5055974;28;20260;-77
2024/01/11 02:51:23;;;;;;;49.97;21.23;;;-8.60;1.00;;;;;;5054517;28;20401;-78
2024/01/11 02:53:49;;;;;;;48.17;21.47;;;-8.60;1.00;;;;;;5054865;28;20166;-78
2024/01/11 02:56:14;;;;;;;48.30;21.67;;;-8.60;99.90;;;;;;5055103;28;20243;-77
2024/01/11 02:58:40;;;;;;;45.00;20.67;;;-8.70;1.00;;;;;;5055130;28;20193;-77
2024/01/11 03:01:06;;;;;;;42.30;19.63;;;-8.70;1.00;;;;;;5055904;28;20169;-77
2024/01/11 03:03:31;;;;;;;43.67;19.00;;;-8.80;74.40;;;;;;5055653;28;20276;-78
2024/01/11 03:05:57;;;;;;;43.37;20.37;;;-8.80;26.60;;;;;;5054188;28;20189;-79
2024/01/11 03:08:22;;;;;;;46.67;19.87;;;-8.80;99.90;;;;;;5054440;28;20208;-78
2024/01/11 03:10:48;;;;;;;48.57;21.60;;;-8.80;1.00;;;;;;5054920;28;20197;-78
2024/01/11 03:13:13;;;;;;;43.07;20.90;;;-8.80;1.00;;;;;;5056090;28;20221;-78
2024/01/11 03:15:39;;;;;;;48.27;22.73;;;-8.90;99.90;;;;;;5055790;28;20200;-79
2024/01/11 03:18:05;;;;;;;48.83;20.13;;;-8.90;99.90;;;;;;5054713;28;20216;-77
2024/01/11 03:20:30;;;;;;;44.50;20.10;;;-8.90;1.00;;;;;;5054264;28;20170;-77
2024/01/11 03:22:56;;;;;;;50.53;21.00;;;-8.90;3.80;;;;;;5055975;28;20174;-78
2024/01/11 03:25:21;;;;;;;43.33;21.00;;;-8.90;1.00;;;;;;5055639;28;20200;-77
2024/01/11 03:27:47;;;;;;;44.57;19.90;;;-8.80;1.00;;;;;;5054679;28;20204;-77
2024/01/11 03:30:13;;;;;;;42.10;20.23;;;-8.80;1.00;;;;;;5055252;28;20188;-78
2024/01/11 03:32:38;;;;;;;47.63;20.20;;;-8.80;1.00;;;;;;5055461;28;20292;-77
2024/01/11 03:35:09;;;;;;;47.57;20.43;;;-8.80;68.00;;;;;;5055705;28;20175;-78
2024/01/11 03:37:35;;;;;;;42.90;19.90;;;-8.80;1.00;;;;;;5055960;28;20256;-77
2024/01/11 03:40:02;;;;;;;45.33;20.80;;;-8.80;99.90;;;;;;5053836;28;20429;-77
2024/01/11 03:42:28;;;;;;;43.47;21.10;;;-8.90;1.00;;;;;;5054380;28;20416;-77
2024/01/11 03:44:54;;;;;;;55.37;21.67;;;-8.90;1.00;;;;;;5055549;28;20432;-77
2024/01/11 03:47:19;;;;;;;41.73;20.03;;;-8.90;45.70;;;;;;5055874;28;20212;-77
2024/01/11 03:49:45;;;;;;;47.53;20.33;;;-9.10;99.90;;;;;;5055540;28;20222;-78
2024/01/11 03:52:10;;;;;;;47.67;20.40;;;-8.90;1.00;;;;;;5053842;28;20201;-78
2024/01/11 03:54:36;;;;;;;49.60;19.67;;;-9.00;96.10;;;;;;5055610;28;20177;-77
2024/01/11 03:57:02;;;;;;;42.53;20.53;;;-8.90;99.90;;;;;;5055412;28;20184;-77
2024/01/11 03:59:27;;;;;;;44.43;19.43;;;-8.80;99.90;;;;;;5054884;28;20284;-78
2024/01/11 04:01:53;;;;;;;39.00;19.43;;;-8.90;69.20;;;;;;5054334;28;20267;-78
2024/01/11 04:04:19;;;;;;;38.13;18.23;;;-8.90;1.00;;;;;;5054201;28;20170;-78
2024/01/11 04:06:45;;;;;;;45.80;19.57;;;-9.00;1.00;;;;;;5054753;28;20165;-78
2024/01/11 04:09:11;;;;;;;46.57;19.67;;;-9.00;1.00;;;;;;5055229;28;20197;-77
2024/01/11 04:11:37;;;;;;;43.47;20.27;;;-9.10;1.00;;;;;;5053675;28;20178;-78
2024/01/11 04:14:02;;;;;;;44.13;20.57;;;-9.10;99.90;;;;;;5054091;28;20199;-77
2024/01/11 04:16:29;;;;;;;43.53;19.83;;;-9.00;99.90;;;;;;5057859;28;20473;-77
2024/01/11 04:18:54;;;;;;;43.33;20.00;;;-9.00;99.90;;;;;;5059301;28;20197;-77
2024/01/11 04:21:24;;;;;;;42.80;19.07;;;-9.00;23.40;;;;;;5057176;28;20472;-78
2024/01/11 04:23:50;;;;;;;43.60;20.13;;;-8.90;37.20;;;;;;5057864;28;20172;-78
2024/01/11 04:26:16;;;;;;;46.40;20.47;;;-9.00;1.00;;;;;;5059039;28;20920;-78
2024/01/11 04:28:42;;;;;;;43.73;18.53;;;-9.10;99.90;;;;;;5059021;28;20436;-78
2024/01/11 04:31:10;;;;;;;44.23;20.17;;;-9.10;1.00;;;;;;5057540;28;20424;-79
2024/01/11 04:33:39;;;;;;;48.13;21.27;;;-9.20;99.90;;;;;;5058856;28;20212;-78
2024/01/11 04:36:05;;;;;;;44.70;19.53;;;-9.20;99.90;;;;;;5049972;28;20439;-78
2024/01/11 04:38:31;;;;;;;47.07;20.60;;;-9.20;99.90;;;;;;5057924;28;20526;-78
2024/01/11 04:40:57;;;;;;;46.43;19.30;;;-9.20;99.90;;;;;;5058541;28;20440;-78
2024/01/11 04:43:22;;;;;;;42.47;18.97;;;-9.00;1.00;;;;;;5058197;28;20165;-78
2024/01/11 04:45:48;;;;;;;42.97;20.80;;;-9.10;48.00;;;;;;5059076;28;20182;-77
2024/01/11 04:50:47;;;;;;;40.77;19.67;;;-9.20;29.10;;;;;;5033818;28;20210;-85
2024/01/11 04:53:13;;;;;;;41.20;19.40;;;-9.10;1.00;;;;;;5035797;28;20579;-86
2024/01/11 04:55:39;;;;;;;42.33;19.57;;;-9.10;1.00;;;;;;5035699;28;20166;-86
2024/01/11 04:58:04;;;;;;;42.33;19.63;;;-9.20;99.90;;;;;;5035752;28;20669;-85
2024/01/11 05:00:30;;;;;;;43.27;19.13;;;-9.20;1.00;;;;;;5035107;28;20240;-85
2024/01/11 05:02:55;;;;;;;38.70;19.10;;;-9.20;1.00;;;;;;5034446;28;20181;-85
2024/01/11 05:05:21;;;;;;;51.10;20.87;;;-9.30;99.90;;;;;;5035756;28;20272;-85
2024/01/11 05:07:46;;;;;;;47.60;19.90;;;-9.30;99.90;;;;;;5034420;28;20529;-86
2024/01/11 05:10:12;;;;;;;49.20;20.97;;;-9.30;99.90;;;;;;5034741;28;20205;-85
2024/01/11 05:12:38;;;;;;;48.50;21.80;;;-9.30;1.00;;;;;;5034001;28;20205;-85
2024/01/11 05:15:06;;;;;;;40.97;19.73;;;-9.20;1.00;;;;;;5033968;28;20189;-85
2024/01/11 05:17:31;;;;;;;44.50;19.50;;;-9.30;13.90;;;;;;5034842;28;20177;-85
2024/01/11 05:19:57;;;;;;;44.83;20.70;;;-9.30;1.00;;;;;;5033050;28;20812;-83
2024/01/11 05:22:22;;;;;;;44.80;20.07;;;-9.20;1.00;;;;;;5033917;28;20201;-85
2024/01/11 05:24:48;;;;;;;44.73;20.03;;;-9.20;99.90;;;;;;5033534;28;20525;-85
2024/01/11 05:27:13;;;;;;;44.37;20.37;;;-9.30;99.90;;;;;;5035141;28;20230;-85
2024/01/11 05:29:39;;;;;;;44.80;20.20;;;-9.20;99.90;;;;;;5033502;28;20245;-85
2024/01/11 05:32:05;;;;;;;41.97;18.90;;;-9.20;99.90;;;;;;5033327;28;20269;-85
2024/01/11 05:34:31;;;;;;;45.40;19.33;;;-9.10;99.90;;;;;;5033879;28;20177;-85
2024/01/11 05:36:56;;;;;;;47.37;20.03;;;-9.20;1.00;;;;;;5033452;28;20413;-85
2024/01/11 05:39:22;;;;;;;45.03;18.80;;;-9.20;1.00;;;;;;5034499;28;20236;-85
2024/01/11 05:41:47;;;;;;;42.27;20.03;;;-9.30;1.00;;;;;;5032740;28;20182;-86
2024/01/11 05:44:13;;;;;;;44.70;20.33;;;-9.40;99.90;;;;;;5033384;28;20177;-85
2024/01/11 05:46:38;;;;;;;41.83;19.17;;;-9.40;1.00;;;;;;5033324;28;20696;-85
2024/01/11 05:49:04;;;;;;;44.73;20.20;;;-9.40;99.90;;;;;;5039985;28;20307;-85
2024/01/11 05:51:29;;;;;;;44.00;19.80;;;-9.50;1.00;;;;;;5053225;28;20179;-86
2024/01/11 05:53:55;;;;;;;41.23;19.47;;;-9.50;61.10;;;;;;5053302;28;20172;-85
2024/01/11 05:56:20;;;;;;;43.50;19.47;;;-9.50;1.00;;;;;;5053456;28;20172;-84
2024/01/11 05:58:46;;;;;;;43.07;19.30;;;-9.50;1.00;;;;;;5052135;28;20247;-84
2024/01/11 06:01:12;;;;;;;45.40;20.73;;;-9.50;99.90;;;;;;5052753;28;20215;-85
2024/01/11 06:03:38;;;;;;;41.93;19.60;;;-9.60;99.90;;;;;;5053079;28;20194;-84
2024/01/11 06:06:05;;;;;;;44.97;19.07;;;-9.60;99.90;;;;;;5052321;28;20205;-84
2024/01/11 06:08:31;;;;;;;45.13;20.57;;;-9.50;1.00;;;;;;5052378;28;20477;-83
2024/01/11 06:10:59;;;;;;;47.60;19.73;;;-9.50;2.40;;;;;;5051987;28;20449;-83
2024/01/11 06:13:25;;;;;;;43.53;19.53;;;-9.50;99.90;;;;;;5052046;28;20287;-83
2024/01/11 06:15:51;;;;;;;45.90;20.03;;;-9.50;99.90;;;;;;5053130;28;20491;-82
2024/01/11 06:18:17;;;;;;;49.10;21.97;;;-9.50;1.00;;;;;;5051520;28;20513;-82
2024/01/11 06:20:42;;;;;;;45.70;20.70;;;-9.50;1.00;;;;;;5051674;28;20177;-82
2024/01/11 06:23:08;;;;;;;43.00;19.30;;;-9.40;35.40;;;;;;5053507;28;20188;-81
2024/01/11 06:25:33;;;;;;;42.70;20.40;;;-9.40;1.00;;;;;;5051892;28;20271;-82
2024/01/11 06:27:59;;;;;;;46.57;19.80;;;-9.50;1.00;;;;;;5051654;28;20233;-82
2024/01/11 06:30:25;;;;;;;42.97;20.30;;;-9.50;99.90;;;;;;5050766;28;20202;-81
2024/01/11 06:32:50;;;;;;;52.73;20.97;;;-9.50;1.00;;;;;;5052762;28;20193;-81
2024/01/11 06:35:16;;;;;;;47.73;21.57;;;-9.20;1.00;;;;;;5052827;28;20188;-83
2024/01/11 06:37:42;;;;;;;43.40;20.73;;;-9.20;99.90;;;;;;5050746;28;20253;-82
2024/01/11 06:40:08;;;;;;;46.80;20.77;;;-9.30;86.80;;;;;;5050769;28;20276;-83
2024/01/11 06:42:34;;;;;;;46.07;20.70;;;-9.30;44.80;;;;;;5051398;28;20212;-82
2024/01/11 06:44:59;;;;;;;41.53;20.30;;;-9.50;1.00;;;;;;5052680;28;20436;-83
2024/01/11 06:47:25;;;;;;;43.93;19.40;;;-9.50;1.00;;;;;;5051490;28;20682;-83
2024/01/11 06:49:51;;;;;;;47.13;19.70;;;-9.40;99.90;;;;;;5014677;28;1058805;-82
2024/01/11 06:52:17;;;;;;;45.67;20.57;;;-9.40;99.90;;;;;;5053217;28;20208;-82
2024/01/11 06:54:42;;;;;;;42.13;19.53;;;-9.50;99.90;;;;;;5053491;28;20184;-82
2024/01/11 06:57:08;;;;;;;46.07;20.57;;;-9.50;1.00;;;;;;5052200;28;20634;-81
2024/01/11 06:59:34;;;;;;;50.03;22.40;;;-9.60;1.00;;;;;;5053070;28;20208;-84
2024/01/11 07:01:59;;;;;;;46.30;20.07;;;-9.70;99.90;;;;;;5052950;28;20185;-82
2024/01/11 07:04:25;;;;;;;44.63;20.70;;;-9.80;1.00;;;;;;5054049;28;20184;-83
2024/01/11 07:06:50;;;;;;;44.83;18.90;;;-9.70;1.00;;;;;;5053571;28;20170;-82
2024/01/11 07:09:16;;;;;;;47.27;22.20;;;-8.50;99.90;;;;;;5053221;28;20194;-81
2024/01/11 07:11:43;;;;;;;51.90;21.40;;;-7.70;99.90;;;;;;5051605;28;20177;-84
2024/01/11 07:14:09;;;;;;;46.67;21.03;;;-8.00;99.90;;;;;;5052481;28;20409;-86
2024/01/11 07:16:35;;;;;;;43.23;21.60;;;-8.50;99.90;;;;;;5052432;28;20412;-86
2024/01/11 07:19:00;;;;;;;52.93;22.73;;;-9.00;99.90;;;;;;5051553;28;20741;-86
2024/01/11 07:21:31;;;;;;;46.47;21.87;;;-9.20;98.70;;;;;;5050919;28;20502;-86
2024/01/11 07:23:57;;;;;;;52.03;22.33;;;-9.40;1.00;;;;;;5052768;28;20173;-84
2024/01/11 07:26:23;;;;;;;51.50;21.50;;;-9.40;1.00;;;;;;5046564;28;20769;-85
2024/01/11 07:28:49;;;;;;;50.60;21.40;;;-9.40;1.00;;;;;;5041956;28;20474;-85
2024/01/11 07:31:15;;;;;;;45.40;20.30;;;-9.50;99.90;;;;;;5050758;28;20467;-86
2024/01/11 07:33:40;;;;;;;42.60;20.83;;;-9.50;1.00;;;;;;5051394;28;20212;-85
2024/01/11 07:36:06;;;;;;;47.70;21.23;;;-9.40;1.00;;;;;;5052589;28;20197;-84
2024/01/11 07:38:32;;;;;;;45.17;21.30;;;-9.40;1.00;;;;;;5047569;28;20194;-85
2024/01/11 07:40:57;;;;;;;52.30;20.93;;;-9.30;99.90;;;;;;5050617;28;20215;-85
2024/01/11 07:43:23;;;;;;;46.30;21.03;;;-9.40;99.90;;;;;;5052175;28;20578;-85
2024/01/11 07:45:50;;;;;;;44.50;20.27;;;-9.40;1.00;;;;;;5048859;28;20269;-87
2024/01/11 07:48:15;;;;;;;45.40;20.90;;;-9.40;99.90;;;;;;5049343;28;20184;-84
2024/01/11 07:50:41;;;;;;;43.60;18.80;;;-9.40;99.90;;;;;;5052686;28;20458;-86
2024/01/11 07:53:06;;;;;;;46.80;19.80;;;-9.40;2.60;;;;;;5052403;28;20741;-85
2024/01/11 07:55:32;;;;;;;41.70;19.13;;;-9.40;54.80;;;;;;5052529;28;20378;-86
2024/01/11 07:57:57;;;;;;;50.40;20.97;;;-9.40;99.90;;;;;;5051152;28;20172;-85
2024/01/11 08:00:23;;;;;;;43.87;19.60;;;-9.30;1.00;;;;;;5051483;28;20200;-86
2024/01/11 08:02:49;;;;;;;41.43;19.47;;;-9.30;1.00;;;;;;5052542;28;20197;-86
2024/01/11 08:05:15;;;;;;;44.13;19.03;;;-9.30;99.90;;;;;;5050809;28;20177;-84
2024/01/11 08:07:42;;;;;;;43.23;20.10;;;-9.30;1.00;;;;;;5045912;28;20189;-84
2024/01/11 08:10:09;;;;;;;45.80;20.67;;;-9.30;1.00;;;;;;5049883;28;20588;-84
2024/01/11 08:12:35;;;;;;;43.77;19.03;;;-9.20;1.00;;;;;;5048464;28;20462;-84
2024/01/11 08:15:00;;;;;;;46.53;19.87;;;-9.20;80.10;;;;;;5051925;28;20419;-84
2024/01/11 08:17:26;;;;;;;47.73;20.70;;;-9.10;1.00;;;;;;5052101;28;20412;-84
2024/01/11 08:19:51;;;;;;;49.23;22.17;;;-8.90;1.00;;;;;;5051700;28;20595;-84
2024/01/11 08:22:17;;;;;;;57.97;26.57;;;-9.00;1.00;;;;;;5050271;28;20178;-84
2024/01/11 08:24:43;;;;;;;56.67;25.93;;;-9.00;99.90;;;;;;5047945;28;20188;-84
2024/01/11 08:27:08;;;;;;;48.43;22.90;;;-9.00;99.90;;;;;;5046947;28;20287;-85
2024/01/11 08:29:34;;;;;;;46.40;20.73;;;-8.90;1.00;;;;;;5050816;28;20252;-83
2024/01/11 08:32:03;;;;;;;44.70;21.10;;;-8.80;1.00;;;;;;5050242;28;20197;-82
2024/01/11 08:34:29;;;;;;;50.70;23.27;;;-8.70;1.00;;;;;;5051501;28;20260;-81
2024/01/11 08:36:55;;;;;;;56.10;25.13;;;-8.70;1.00;;;;;;5051117;28;20464;-82
2024/01/11 08:39:21;;;;;;;48.70;21.80;;;-8.70;99.90;;;;;;5050283;28;20189;-86
2024/01/11 08:41:47;;;;;;;55.10;24.53;;;-8.50;99.90;;;;;;5050675;28;20189;-86
2024/01/11 08:44:13;;;;;;;52.13;23.17;;;-8.40;1.00;;;;;;5050236;28;20408;-84
2024/01/11 08:46:39;;;;;;;48.00;21.10;;;-8.30;1.00;;;;;;5051579;28;20415;-84
2024/01/11 08:49:04;;;;;;;51.80;23.27;;;-8.20;1.00;;;;;;5050425;28;20206;-84
2024/01/11 08:51:31;;;;;;;69.83;30.67;;;-8.10;1.00;;;;;;5049705;28;20170;-84
2024/01/11 08:53:58;;;;;;;50.80;25.33;;;-7.90;1.00;;;;;;5051420;28;20700;-85
2024/01/11 08:56:23;;;;;;;56.37;24.73;;;-7.80;1.00;;;;;;5051680;28;20416;-85
2024/01/11 08:58:49;;;;;;;52.47;24.27;;;-7.70;1.00;;;;;;5050228;28;20441;-84
2024/01/11 09:01:15;;;;;;;1264.77;330.27;;;-7.70;99.90;;;;;;5052876;28;20174;-84
2024/01/11 09:03:41;;;;;;;1171.77;316.90;;;-5.20;99.90;;;;;;5054071;28;20323;-84
2024/01/11 09:06:06;;;;;;;377.53;101.73;;;2.80;99.90;;;;;;5054076;28;20271;-85
2024/01/11 09:08:32;;;;;;;115.20;43.87;;;1.20;99.90;;;;;;5054061;28;20200;-85
2024/01/11 09:10:59;;;;;;;65.03;31.77;;;0.80;99.90;;;;;;5053743;28;20173;-85
2024/01/11 09:13:25;;;;;;;56.10;29.27;;;-1.10;99.90;;;;;;5054821;28;20202;-85
2024/01/11 09:15:52;;;;;;;52.37;26.53;;;-3.10;99.90;;;;;;5054013;28;20173;-89
2024/01/11 09:18:18;;;;;;;54.73;28.33;;;-3.80;99.90;;;;;;5054894;28;20198;-87
2024/01/11 09:20:44;;;;;;;54.07;26.70;;;-4.40;99.90;;;;;;5053257;28;20183;-87
2024/01/11 09:23:09;;;;;;;59.87;27.53;;;-4.70;99.90;;;;;;5053692;28;20170;-85
2024/01/11 09:25:35;;;;;;;53.27;25.87;;;-4.00;99.90;;;;;;5054928;28;20177;-84
2024/01/11 09:28:00;;;;;;;49.10;25.10;;;-4.00;99.90;;;;;;5055232;28;20235;-85
2024/01/11 09:30:26;;;;;;;57.90;26.97;;;-4.60;99.90;;;;;;5053255;28;20190;-85
2024/01/11 09:32:52;;;;;;;52.80;25.90;;;-4.90;1.00;;;;;;5053888;28;20263;-85
2024/01/11 09:35:18;;;;;;;54.77;27.00;;;-5.20;1.00;;;;;;5053346;28;20174;-84
2024/01/11 09:37:46;;;;;;;54.40;25.90;;;-5.30;1.00;;;;;;5053334;28;20671;-85
2024/01/11 09:40:12;;;;;;;58.00;27.47;;;-5.40;1.00;;;;;;5053708;28;20250;-85
2024/01/11 09:42:37;;;;;;;47.83;23.93;;;-5.50;1.00;;;;;;5053286;28;20593;-85
2024/01/11 09:45:08;;;;;;;61.43;26.17;;;-5.50;1.00;;;;;;5053518;28;20247;-85
2024/01/11 09:47:35;;;;;;;58.50;26.07;;;-5.50;1.00;;;;;;5053638;28;20185;-81
2024/01/11 09:50:02;;;;;;;58.30;26.63;;;-5.40;1.00;;;;;;5052573;28;20501;-81
2024/01/11 09:52:31;;;;;;;57.07;26.63;;;-5.40;1.00;;;;;;5054835;28;20450;-80
2024/01/11 09:55:00;;;;;;;64.43;28.27;;;-5.30;1.00;;;;;;5051141;28;20434;-81
2024/01/11 09:57:29;;;;;;;58.80;26.87;;;-5.10;1.00;;;;;;5051969;28;20429;-80
2024/01/11 09:59:56;;;;;;;54.57;26.07;;;-5.10;1.00;;;;;;5053685;28;20435;-79
2024/01/11 10:02:23;;;;;;;60.73;25.00;;;-5.10;1.00;;;;;;5047873;28;20417;-79
2024/01/11 10:04:49;;;;;;;55.43;25.83;;;-5.00;1.00;;;;;;5054593;28;20440;-80
2024/01/11 10:07:20;;;;;;;54.87;24.67;;;-5.00;1.00;;;;;;5054784;28;20413;-79
2024/01/11 10:09:46;;;;;;;57.97;26.87;;;-4.80;1.00;;;;;;5054218;28;20452;-80
2024/01/11 10:12:11;;;;;;;58.60;26.90;;;-4.60;99.90;;;;;;5052322;28;20462;-80
2024/01/11 10:14:37;;;;;;;62.83;27.90;;;-4.40;1.00;;;;;;5055453;28;20192;-83
2024/01/11 10:17:04;;;;;;;58.20;25.67;;;-4.20;1.00;;;;;;5054941;28;20180;-78
2024/01/11 10:19:29;;;;;;;55.50;24.80;;;-4.00;99.90;;;;;;5055538;28;20196;-80
2024/01/11 10:21:55;;;;;;;52.07;24.00;;;-3.90;99.90;;;;;;5053499;28;20477;-84
2024/01/11 10:24:22;;;;;;;52.17;26.07;;;-3.80;99.90;;;;;;5054702;28;20255;-81
2024/01/11 10:26:47;;;;;;;54.53;26.93;;;-3.70;12.70;;;;;;5052988;28;20168;-83
2024/01/11 10:29:13;;;;;;;59.80;27.03;;;-3.60;1.00;;;;;;5054376;28;20216;-82
2024/01/11 10:31:39;;;;;;;55.33;26.20;;;-3.40;1.00;;;;;;5052568;28;20200;-86
2024/01/11 10:34:06;;;;;;;58.57;26.40;;;-3.20;1.00;;;;;;5054138;28;20673;-82
2024/01/11 10:36:32;;;;;;;63.80;28.13;;;-3.10;1.00;;;;;;5054250;28;20184;-85
2024/01/11 10:39:04;;;;;;;58.57;27.10;;;-2.90;99.90;;;;;;5052668;28;20431;-83
2024/01/11 10:41:36;;;;;;;56.20;27.33;;;-2.80;1.00;;;;;;5053997;28;20184;-83
2024/01/11 10:44:03;;;;;;;59.00;26.10;;;-2.70;99.90;;;;;;5054028;28;20162;-84
2024/01/11 10:46:31;;;;;;;58.27;26.63;;;-2.60;1.00;;;;;;5054048;28;20181;-82
2024/01/11 10:48:59;;;;;;;56.37;28.07;;;-2.40;1.00;;;;;;5121728;22;20238;-81
2024/01/11 10:51:28;;;;;;;54.23;27.13;;;-2.30;44.30;;;;;;5053385;28;20642;-80
2024/01/11 10:53:54;;;;;;;58.00;27.90;;;-2.50;1.00;;;;;;5052373;28;20206;-80
2024/01/11 10:56:21;;;;;;;56.77;27.23;;;-2.30;1.00;;;;;;5052085;28;20188;-80
2024/01/11 10:58:47;;;;;;;56.50;27.17;;;-2.10;1.00;;;;;;5053243;28;20166;-81
2024/01/11 11:01:13;;;;;;;55.13;26.87;;;-1.90;1.00;;;;;;5052848;28;20253;-82
2024/01/11 11:03:42;;;;;;;47.00;25.17;;;-1.60;99.90;;;;;;5052366;28;20181;-81
2024/01/11 11:06:09;;;;;;;55.27;27.20;;;-1.50;23.30;;;;;;5052014;28;20230;-81
2024/01/11 11:08:36;;;;;;;56.63;26.87;;;-1.60;1.00;;;;;;5053322;28;20185;-81
2024/01/11 11:11:05;;;;;;;55.27;27.67;;;-1.50;1.00;;;;;;5050660;28;20268;-82
2024/01/11 11:13:32;;;;;;;55.63;27.93;;;-1.40;99.90;;;;;;5051741;28;20208;-80
2024/01/11 11:15:58;;;;;;;53.40;26.33;;;-1.30;1.00;;;;;;5053329;28;20170;-79
2024/01/11 11:18:24;;;;;;;53.40;26.47;;;-1.10;99.90;;;;;;5053942;28;20691;-81
2024/01/11 11:20:51;;;;;;;54.67;26.90;;;-1.00;1.00;;;;;;5052802;28;20195;-82
2024/01/11 11:23:18;;;;;;;50.57;26.33;;;-0.90;1.00;;;;;;5051834;28;20180;-80
2024/01/11 11:25:48;;;;;;;54.57;26.27;;;-0.80;1.00;;;;;;5051862;28;20726;-80
2024/01/11 11:28:18;;;;;;;53.17;26.40;;;-0.90;1.00;;;;;;5053210;28;20176;-80
2024/01/11 11:30:47;;;;;;;54.17;26.90;;;-0.90;1.00;;;;;;5050807;28;20193;-80
2024/01/11 11:33:20;;;;;;;48.67;25.87;;;-0.80;1.00;;;;;;5053070;28;20283;-80
2024/01/11 11:35:46;;;;;;;48.53;25.13;;;-0.60;1.00;;;;;;5053253;28;20199;-80
2024/01/11 11:38:21;;;;;;;49.73;25.07;;;0.00;99.90;;;;;;5053466;28;20172;-82
2024/01/11 11:40:48;;;;;;;47.77;24.87;;;0.10;99.90;;;;;;5052376;28;20200;-79
2024/01/11 11:43:16;;;;;;;49.13;24.27;;;0.10;99.90;;;;;;5051735;28;20176;-79
2024/01/11 11:45:42;;;;;;;50.43;24.90;;;0.00;99.90;;;;;;5053312;28;20204;-80
2024/01/11 11:48:30;;;;;;;48.50;25.60;;;-0.10;99.90;;;;;;5055196;28;20180;-80
2024/01/11 11:51:08;;;;;;;50.77;25.93;;;-0.20;1.00;;;;;;5054425;28;20211;-80
2024/01/11 11:53:34;;;;;;;52.63;26.63;;;-0.10;1.00;;;;;;5056551;28;20314;-80
2024/01/11 11:56:01;;;;;;;49.17;25.97;;;0.00;1.00;;;;;;5056199;28;20230;-79
2024/01/11 11:58:28;;;;;;;47.80;24.97;;;0.20;1.00;;;;;;5054983;28;20165;-80
2024/01/11 12:00:55;;;;;;;46.63;25.33;;;0.30;99.90;;;;;;5055457;28;20201;-79
2024/01/11 12:03:23;;;;;;;51.63;25.83;;;0.40;99.90;;;;;;5055132;28;20172;-81
2024/01/11 12:05:49;;;;;;;41.53;22.17;;;0.50;99.90;;;;;;5055434;28;20211;-81
2024/01/11 12:08:14;;;;;;;49.83;25.00;;;0.60;99.90;;;;;;5057842;28;20169;-81
2024/01/11 12:10:40;;;;;;;47.17;24.80;;;1.00;99.90;;;;;;5056164;28;20578;-81
2024/01/11 12:13:06;;;;;;;42.37;23.60;;;1.20;1.00;;;;;;5051348;28;20209;-81
2024/01/11 12:15:32;;;;;;;46.27;24.37;;;1.60;1.00;;;;;;5051681;28;20177;-79
2024/01/11 12:17:58;;;;;;;43.13;23.23;;;1.90;1.00;;;;;;5051770;28;20165;-79
2024/01/11 12:20:24;;;;;;;43.07;22.13;;;2.20;99.90;;;;;;5051531;28;20190;-79
2024/01/11 12:22:50;;;;;;;44.00;23.80;;;2.40;99.90;;;;;;5051368;28;20300;-80
2024/01/11 12:25:15;;;;;;;40.00;22.83;;;2.30;99.90;;;;;;5052847;28;20197;-80
2024/01/11 12:27:42;;;;;;;42.07;21.90;;;2.10;99.90;;;;;;5051356;28;20561;-80
2024/01/11 12:30:10;;;;;;;44.27;23.47;;;1.90;1.00;;;;;;5050843;28;20255;-80